Time;durP1;ratioP1;P1;durP2;ratioP2;P2;SDS_P1;SDS_P2;PMS_P1;PMS_P2;Temp;Humidity;BMP_temperature;BMP_pressure;BME280_temperature;BME280_humidity;BME280_pressure;Samples;Min_cycle;Max_cycle;Signal;HPM_P1;HPM_P2
2022/03/09 00:00:33;;;;;;;7.53;5.17;;;;;;;;;;4919280;29;20482;-80
2022/03/09 00:02:59;;;;;;;8.30;5.10;;;;;;;;;;4934697;29;20442;-80
2022/03/09 00:05:25;;;;;;;8.15;4.93;;;;;;;;;;4918895;29;20414;-80
2022/03/09 00:07:51;;;;;;;7.53;4.65;;;;;;;;;;4934418;28;20429;-80
2022/03/09 00:10:17;;;;;;;7.95;5.20;;;;;;;;;;4932119;29;20464;-80
2022/03/09 00:12:44;;;;;;;7.50;5.13;;;;;;;;;;4916368;29;20415;-81
2022/03/09 00:15:10;;;;;;;8.85;5.50;;;;;;;;;;4924491;29;20812;-80
2022/03/09 00:17:37;;;;;;;8.02;5.15;;;;;;;;;;4914356;29;20463;-80
2022/03/09 00:20:04;;;;;;;10.80;5.03;;;3.40;99.90;;;;;;4931886;29;20430;-81
2022/03/09 00:22:30;;;;;;;8.40;5.05;;;;;;;;;;4926013;29;20441;-79
2022/03/09 00:24:56;;;;;;;7.32;4.80;;;;;;;;;;4926526;29;20424;-80
2022/03/09 00:27:23;;;;;;;9.00;5.22;;;;;;;;;;4929227;29;20411;-80
2022/03/09 00:29:49;;;;;;;8.63;5.70;;;;;;;;;;4932007;29;20415;-80
2022/03/09 00:32:15;;;;;;;7.97;5.45;;;;;;;;;;4932027;29;20416;-80
2022/03/09 00:34:41;;;;;;;9.32;5.60;;;;;;;;;;4931583;29;20427;-78
2022/03/09 00:37:07;;;;;;;9.27;6.00;;;;;;;;;;4931802;29;20451;-77
2022/03/09 00:39:33;;;;;;;8.27;5.50;;;;;;;;;;4897230;29;20429;-77
2022/03/09 00:41:59;;;;;;;8.27;5.97;;;;;;;;;;4922289;29;20784;-77
2022/03/09 00:44:25;;;;;;;8.73;5.72;;;;;;;;;;4916030;29;20472;-77
2022/03/09 00:46:51;;;;;;;9.52;5.63;;;;;;;;;;4914493;29;20419;-77
2022/03/09 00:49:17;;;;;;;10.30;5.60;;;;;;;;;;4931574;29;20498;-77
2022/03/09 00:51:43;;;;;;;10.17;5.57;;;;;;;;;;4922249;29;20424;-77
2022/03/09 00:54:09;;;;;;;8.73;5.30;;;;;;;;;;4931596;29;20420;-77
2022/03/09 00:56:35;;;;;;;9.55;5.50;;;;;;;;;;4916018;29;20419;-77
2022/03/09 00:59:01;;;;;;;10.07;5.60;;;;;;;;;;4931663;29;20939;-77
2022/03/09 01:01:27;;;;;;;10.18;5.38;;;;;;;;;;4913992;29;20953;-77
2022/03/09 01:03:54;;;;;;;9.70;5.30;;;;;;;;;;4930865;29;20439;-77
2022/03/09 01:06:20;;;;;;;8.60;5.32;;;;;;;;;;4925837;29;20979;-77
2022/03/09 01:08:46;;;;;;;8.17;5.17;;;;;;;;;;4929095;29;20423;-77
2022/03/09 01:11:12;;;;;;;9.40;5.60;;;;;;;;;;4914804;29;20433;-77
2022/03/09 01:33:19;;;;;;;9.00;5.70;;;;;;;;;;5359350;23;20554;-78
2022/03/09 01:35:46;;;;;;;8.80;5.53;;;;;;;;;;4936488;29;20517;-77
2022/03/09 01:38:12;;;;;;;9.57;5.97;;;;;;;;;;4921125;29;20556;-78
2022/03/09 01:40:38;;;;;;;9.10;5.83;;;;;;;;;;4937974;29;20481;-77
2022/03/09 01:43:04;;;;;;;8.70;5.75;;;;;;;;;;4922205;29;20996;-77
2022/03/09 01:45:31;;;;;;;9.40;5.65;;;;;;;;;;4936843;29;20508;-77
2022/03/09 01:47:57;;;;;;;10.60;5.72;;;;;;;;;;4936255;29;21013;-77
2022/03/09 01:50:23;;;;;;;9.25;5.70;;;;;;;;;;4937582;29;20422;-77
2022/03/09 01:52:49;;;;;;;8.48;5.57;;;;;;;;;;4921665;29;20449;-77
2022/03/09 01:55:15;;;;;;;10.27;6.30;;;;;;;;;;4927798;29;20589;-77
2022/03/09 01:57:41;;;;;;;10.90;5.90;;;;;;;;;;4917588;29;20763;-77
2022/03/09 02:00:08;;;;;;;10.15;6.10;;;;;;;;;;4932612;28;20440;-77
2022/03/09 02:02:34;;;;;;;9.07;6.00;;;;;;;;;;4936871;29;20425;-77
2022/03/09 02:05:00;;;;;;;11.85;5.95;;;;;;;;;;4937382;29;20834;-77
2022/03/09 02:10:11;;;;;;;13.57;6.43;;;;;;;;;;4935089;28;20758;-78
2022/03/09 02:12:38;;;;;;;9.15;6.28;;;;;;;;;;4918226;29;20410;-78
2022/03/09 02:15:05;;;;;;;9.98;6.47;;;;;;;;;;4934700;29;20421;-78
2022/03/09 02:17:31;;;;;;;12.13;6.13;;;;;;;;;;4936106;29;20414;-78
2022/03/09 02:19:57;;;;;;;11.52;6.30;;;;;;;;;;4920364;29;20425;-78
2022/03/09 02:22:34;;;;;;;11.68;6.40;;;;;;;;;;4937200;29;20433;-78
2022/03/09 02:25:01;;;;;;;10.25;6.57;;;;;;;;;;4935851;29;20438;-78
2022/03/09 02:27:27;;;;;;;10.73;7.22;;;;;;;;;;4940494;29;20424;-78
2022/03/09 02:29:53;;;;;;;10.80;6.50;;;;;;;;;;4922802;29;20419;-78
2022/03/09 02:32:20;;;;;;;10.57;6.82;;;;;;;;;;4934922;29;20442;-78
2022/03/09 02:34:47;;;;;;;11.07;6.45;;;;;;;;;;4920831;29;20421;-78
2022/03/09 02:37:13;;;;;;;12.65;6.70;;;;;;;;;;4935155;29;20440;-78
2022/03/09 02:39:39;;;;;;;11.43;6.50;;;;;;;;;;4937053;28;20410;-78
2022/03/09 02:42:05;;;;;;;12.50;7.78;;;;;;;;;;4936502;29;20453;-78
2022/03/09 02:44:32;;;;;;;10.20;6.20;;;;;;;;;;4905028;29;20797;-78
2022/03/09 02:46:58;;;;;;;10.50;6.70;;;;;;;;;;4912327;29;20907;-78
2022/03/09 02:49:25;;;;;;;12.20;6.57;;;;;;;;;;4902870;28;20468;-77
2022/03/09 02:51:51;;;;;;;12.15;7.00;;;;;;;;;;4949359;28;20412;-78
2022/03/09 02:54:17;;;;;;;14.82;7.45;;;;;;;;;;4921730;29;20453;-78
2022/03/09 02:56:43;;;;;;;10.70;6.70;;;;;;;;;;4936278;29;20495;-78
2022/03/09 02:59:09;;;;;;;11.82;6.72;;;;;;;;;;4923201;29;20844;-78
2022/03/09 03:01:36;;;;;;;9.65;6.65;;;;;;;;;;4915389;29;20431;-78
2022/03/09 03:04:02;;;;;;;11.75;6.53;;;;;;;;;;4936183;29;20512;-78
2022/03/09 03:06:28;;;;;;;11.60;6.88;;;;;;;;;;4939568;29;20876;-78
2022/03/09 03:08:54;;;;;;;13.75;8.15;;;;;;;;;;4919851;28;20505;-77
2022/03/09 03:11:20;;;;;;;11.27;6.75;;;;;;;;;;4936039;29;20522;-78
2022/03/09 03:13:48;;;;;;;10.30;6.50;;;;;;;;;;4933002;29;20422;-78
2022/03/09 03:16:15;;;;;;;9.50;6.53;;;;;;;;;;4927910;28;20424;-78
2022/03/09 03:18:41;;;;;;;9.73;6.40;;;;;;;;;;4935368;29;20425;-77
2022/03/09 03:21:07;;;;;;;10.73;6.75;;;;;;;;;;4927813;29;20411;-77
2022/03/09 03:23:34;;;;;;;10.60;6.50;;;;;;;;;;4929786;29;20425;-77
2022/03/09 03:26:01;;;;;;;11.10;7.00;;;;;;;;;;4935932;29;20428;-77
2022/03/09 03:28:28;;;;;;;9.60;6.10;;;;;;;;;;4935600;29;20449;-78
2022/03/09 03:30:54;;;;;;;10.88;7.07;;;;;;;;;;4934148;29;20416;-78
2022/03/09 03:33:21;;;;;;;11.53;7.20;;;;;;;;;;4915622;29;20897;-77
2022/03/09 03:35:47;;;;;;;10.20;7.05;;;;;;;;;;4934935;29;20437;-77
2022/03/09 03:38:14;;;;;;;11.32;7.55;;;;;;;;;;4935217;29;20501;-78
2022/03/09 03:40:40;;;;;;;9.23;6.43;;;;;;;;;;4923418;28;20451;-78
2022/03/09 03:43:06;;;;;;;14.77;7.28;;;;;;;;;;4944594;29;20425;-78
2022/03/09 03:45:32;;;;;;;10.85;7.13;;;;;;;;;;4935719;29;20430;-77
2022/03/09 03:47:58;;;;;;;11.80;7.28;;;;;;;;;;4919130;29;20414;-78
2022/03/09 03:50:26;;;;;;;10.50;7.35;;;;;;;;;;4915542;28;20410;-77
2022/03/09 03:52:52;;;;;;;10.80;7.28;;;;;;;;;;4935462;29;20921;-77
2022/03/09 03:55:18;;;;;;;11.32;7.43;;;;;;;;;;4927846;29;20469;-77
2022/03/09 03:57:45;;;;;;;10.48;7.20;;;;;;;;;;4934278;29;20914;-78
2022/03/09 04:00:11;;;;;;;12.85;8.35;;;;;;;;;;4908289;29;20989;-79
2022/03/09 04:02:37;;;;;;;11.88;7.60;;;;;;;;;;4919310;29;20501;-79
2022/03/09 04:05:05;;;;;;;11.85;7.70;;;;;;;;;;4934408;29;20426;-78
2022/03/09 04:07:31;;;;;;;11.20;7.50;;;;;;;;;;4927288;28;20404;-79
2022/03/09 04:09:57;;;;;;;10.00;7.07;;;;;;;;;;4935615;29;20418;-79
2022/03/09 04:12:24;;;;;;;13.05;7.85;;;;;;;;;;4935383;29;20457;-79
2022/03/09 04:14:50;;;;;;;11.57;7.20;;;;;;;;;;4916239;29;20411;-79
2022/03/09 04:17:17;;;;;;;10.40;7.10;;;;;;;;;;4934906;29;20832;-79
2022/03/09 04:19:43;;;;;;;10.85;7.30;;;;;;;;;;4918725;29;20418;-79
2022/03/09 04:22:09;;;;;;;14.43;7.60;;;;;;;;;;4935103;29;20414;-79
2022/03/09 04:24:35;;;;;;;11.20;7.38;;;;;;;;;;4934924;29;20461;-79
2022/03/09 04:27:01;;;;;;;11.13;7.28;;;;;;;;;;4935362;29;20432;-79
2022/03/09 04:29:27;;;;;;;11.30;7.70;;;;;;;;;;4927801;28;20404;-79
2022/03/09 04:31:53;;;;;;;11.80;7.27;;;;;;;;;;4937278;29;20433;-79
2022/03/09 04:34:19;;;;;;;11.52;7.53;;;;;;;;;;4934858;29;20418;-79
2022/03/09 04:36:45;;;;;;;13.90;7.72;;;;;;;;;;4919359;29;20465;-79
2022/03/09 04:39:11;;;;;;;12.20;7.55;;;;;;;;;;4935282;29;20417;-79
2022/03/09 04:41:37;;;;;;;12.77;7.70;;;;;;;;;;4921316;29;20486;-79
2022/03/09 04:44:03;;;;;;;12.07;7.45;;;;;;;;;;4934165;29;20524;-79
2022/03/09 04:46:30;;;;;;;11.80;7.60;;;;;;;;;;4932092;28;20410;-79
2022/03/09 04:48:56;;;;;;;12.18;8.35;;;;;;;;;;4933818;29;20490;-79
2022/03/09 04:51:22;;;;;;;11.95;7.70;;;;;;;;;;4914380;29;20694;-79
2022/03/09 04:53:48;;;;;;;13.13;7.63;;;;;;;;;;4915492;29;20501;-79
2022/03/09 04:56:15;;;;;;;14.10;7.90;;;;;;;;;;4934401;29;20417;-79
2022/03/09 04:58:41;;;;;;;11.65;7.70;;;;;;;;;;4934611;29;20436;-79
2022/03/09 05:01:07;;;;;;;13.75;7.95;;;;;;;;;;4935870;29;20481;-80
2022/03/09 05:03:34;;;;;;;14.27;8.52;;;;;;;;;;4922134;29;20437;-80
2022/03/09 05:06:01;;;;;;;13.80;7.95;;;;;;;;;;4906751;28;20422;-79
2022/03/09 05:08:27;;;;;;;12.52;7.55;;;;;;;;;;4921013;28;20417;-79
2022/03/09 05:10:53;;;;;;;12.63;7.70;;;;;;;;;;4923058;29;20405;-80
2022/03/09 05:13:20;;;;;;;11.70;8.02;;;;;;;;;;4937078;29;20422;-80
2022/03/09 05:15:46;;;;;;;12.43;7.90;;;;;;;;;;4938497;29;20421;-79
2022/03/09 05:18:12;;;;;;;14.33;7.90;;;;;;;;;;4937195;29;20991;-80
2022/03/09 05:20:39;;;;;;;12.63;7.90;;;;;;;;;;4929596;29;20417;-79
2022/03/09 05:23:05;;;;;;;14.33;8.00;;;;;;;;;;4933016;29;20427;-79
2022/03/09 05:25:31;;;;;;;13.30;8.45;;;;;;;;;;4937901;29;20902;-80
2022/03/09 05:27:57;;;;;;;13.13;8.17;;;;;;;;;;4922544;29;20406;-79
2022/03/09 05:30:23;;;;;;;14.15;8.40;;;;;;;;;;4938127;28;20502;-79
2022/03/09 05:32:49;;;;;;;14.83;9.30;;;;;;;;;;4937837;28;20566;-79
2022/03/09 05:35:15;;;;;;;11.55;7.70;;;;;;;;;;4936488;29;20422;-79
2022/03/09 05:37:42;;;;;;;12.32;7.65;;;;;;;;;;4918809;29;20914;-79
2022/03/09 05:40:09;;;;;;;12.60;7.88;;;;;;;;;;4936784;29;20459;-79
2022/03/09 05:42:35;;;;;;;12.48;8.10;;;;;;;;;;4937710;29;20612;-80
2022/03/09 05:45:02;;;;;;;12.98;8.13;;;;;;;;;;4937491;28;20821;-80
2022/03/09 05:47:28;;;;;;;14.93;8.37;;;;;;;;;;4927321;29;20505;-78
2022/03/09 05:49:54;;;;;;;14.48;8.63;;;;;;;;;;4921168;29;20424;-79
2022/03/09 05:52:20;;;;;;;12.10;8.27;;;;;;;;;;4936348;29;20456;-79
2022/03/09 05:54:46;;;;;;;11.85;8.27;;;;;;;;;;4936646;29;20406;-79
2022/03/09 05:57:19;;;;;;;13.10;8.20;;;;;;;;;;4939790;29;20474;-80
2022/03/09 05:59:45;;;;;;;14.13;8.93;;;;;;;;;;4941033;28;20429;-80
2022/03/09 06:02:11;;;;;;;12.47;8.13;;;;;;;;;;4939081;29;20809;-78
2022/03/09 06:04:37;;;;;;;12.30;8.68;;;;;;;;;;4921466;29;20440;-79
2022/03/09 06:07:04;;;;;;;13.07;8.73;;;;;;;;;;4937907;29;20782;-79
2022/03/09 06:09:30;;;;;;;15.15;9.20;;;;;;;;;;4936789;29;20414;-79
2022/03/09 06:11:56;;;;;;;13.70;8.90;;;;;;;;;;4936477;29;20541;-79
2022/03/09 06:14:22;;;;;;;14.38;8.48;;;;;;;;;;4937950;29;20417;-78
2022/03/09 06:16:48;;;;;;;14.57;9.25;;;;;;;;;;4946018;29;20442;-78
2022/03/09 06:19:15;;;;;;;14.57;8.73;;;;;;;;;;4920488;29;20932;-79
2022/03/09 06:21:41;;;;;;;15.35;8.60;;;;;;;;;;4906297;29;20936;-79
2022/03/09 06:24:08;;;;;;;14.63;8.57;;;;;;;;;;4939364;29;20444;-79
2022/03/09 06:26:34;;;;;;;14.25;7.70;;;;;;;;;;4925140;29;20420;-78
2022/03/09 06:29:00;;;;;;;15.38;10.00;;;;;;;;;;4935676;29;20418;-79
2022/03/09 06:31:26;;;;;;;12.52;8.35;;;;;;;;;;4938552;29;20921;-79
2022/03/09 06:33:52;;;;;;;13.30;8.27;;;;;;;;;;4920980;29;20797;-79
2022/03/09 06:36:18;;;;;;;15.40;9.55;;;;;;;;;;4923266;29;20425;-79
2022/03/09 06:38:44;;;;;;;16.52;9.68;;;;;;;;;;4937569;29;20702;-77
2022/03/09 06:41:11;;;;;;;13.68;8.27;;;;;;;;;;4935393;29;20434;-80
2022/03/09 06:43:37;;;;;;;15.52;9.30;;;;;;;;;;4933772;29;20426;-79
2022/03/09 06:46:04;;;;;;;17.80;9.40;;;;;;;;;;4902190;29;20438;-79
2022/03/09 06:48:30;;;;;;;15.35;8.88;;;;;;;;;;4937627;29;20492;-78
2022/03/09 06:50:56;;;;;;;15.73;8.90;;;;;;;;;;4939168;29;20410;-78
2022/03/09 06:53:22;;;;;;;15.52;8.70;;;;;;;;;;4938769;29;20425;-84
2022/03/09 06:55:48;;;;;;;13.13;8.60;;;;;;;;;;4937290;28;20418;-79
2022/03/09 06:58:14;;;;;;;16.15;9.95;;;;;;;;;;4936630;29;20413;-79
2022/03/09 07:00:41;;;;;;;12.98;8.57;;;;;;;;;;4920301;28;20986;-79
2022/03/09 07:03:07;;;;;;;13.02;8.25;;;;;;;;;;4920237;29;20773;-80
2022/03/09 07:05:33;;;;;;;12.68;8.13;;;;;;;;;;4919278;29;20481;-81
2022/03/09 07:07:59;;;;;;;12.38;8.48;;;;;;;;;;4920665;29;20430;-80
2022/03/09 07:10:26;;;;;;;13.63;8.57;;;;;;;;;;4933309;29;20418;-80
2022/03/09 07:12:52;;;;;;;12.63;7.82;;;;;;;;;;4935659;29;20423;-81
2022/03/09 07:15:18;;;;;;;13.40;8.10;;;;;;;;;;4939156;29;20414;-79
2022/03/09 07:17:46;;;;;;;12.93;8.10;;;;;;;;;;4932604;29;20427;-79
2022/03/09 07:20:12;;;;;;;15.15;8.60;;;;;;;;;;4935817;29;20918;-80
2022/03/09 07:22:42;;;;;;;12.40;8.00;;;3.30;99.90;;;;;;4951609;29;20430;-80
2022/03/09 07:25:09;;;;;;;12.93;8.25;;;;;;;;;;4936224;29;20419;-79
2022/03/09 07:27:35;;;;;;;13.97;8.57;;;;;;;;;;4937372;28;20429;-78
2022/03/09 07:30:02;;;;;;;13.35;8.50;;;;;;;;;;4929687;29;20412;-78
2022/03/09 07:32:28;;;;;;;12.35;7.95;;;;;;;;;;4941590;28;20422;-77
2022/03/09 07:34:54;;;;;;;11.00;7.73;;;;;;;;;;4929476;29;20433;-78
2022/03/09 07:37:20;;;;;;;10.68;8.05;;;;;;;;;;4942863;28;20421;-78
2022/03/09 07:39:46;;;;;;;12.98;7.70;;;;;;;;;;4920058;29;22357;-78
2022/03/09 07:42:12;;;;;;;12.35;8.20;;;;;;;;;;4921025;29;20783;-78
2022/03/09 07:44:38;;;;;;;13.27;8.50;;;;;;;;;;4919715;28;20430;-73
2022/03/09 07:47:04;;;;;;;13.15;8.10;;;;;;;;;;4928371;29;20437;-73
2022/03/09 07:49:33;;;;;;;13.73;8.25;;;;;;;;;;4914156;29;20480;-73
2022/03/09 07:52:00;;;;;;;12.90;7.30;;;;;;;;;;4930871;28;20461;-73
2022/03/09 07:54:27;;;;;;;11.93;7.75;;;;;;;;;;4931742;29;20418;-73
2022/03/09 07:56:53;;;;;;;16.23;7.88;;;;;;;;;;4912459;29;20468;-74
2022/03/09 07:59:19;;;;;;;11.88;7.30;;;;;;;;;;4930369;29;20492;-73
2022/03/09 08:01:45;;;;;;;10.93;7.47;;;;;;;;;;4914893;29;20465;-73
2022/03/09 08:04:11;;;;;;;11.70;7.70;;;;;;;;;;4929494;29;20440;-75
2022/03/09 08:06:37;;;;;;;12.85;8.10;;;;;;;;;;4930849;28;20433;-75
2022/03/09 08:09:04;;;;;;;14.02;7.95;;;;;;;;;;4930740;29;20457;-75
2022/03/09 08:11:30;;;;;;;13.27;8.35;;;;;;;;;;4931725;29;20573;-75
2022/03/09 08:13:57;;;;;;;10.68;7.45;;;;;;;;;;4914807;28;20461;-76
2022/03/09 08:16:23;;;;;;;13.13;7.93;;;;;;;;;;4914916;29;20959;-75
2022/03/09 08:18:49;;;;;;;11.75;7.68;;;;;;;;;;4929738;28;20456;-75
2022/03/09 08:21:15;;;;;;;11.77;7.33;;;;;;;;;;4931270;28;20510;-75
2022/03/09 08:23:41;;;;;;;12.90;7.80;;;;;;;;;;4915975;29;20489;-75
2022/03/09 08:26:08;;;;;;;11.98;7.10;;;;;;;;;;4926253;28;20452;-75
2022/03/09 08:28:34;;;;;;;11.65;7.20;;;;;;;;;;4915920;29;20909;-75
2022/03/09 08:31:00;;;;;;;14.40;7.75;;;;;;;;;;4932028;29;20449;-75
2022/03/09 08:33:26;;;;;;;13.37;7.40;;;;;;;;;;4928706;29;20448;-75
2022/03/09 08:35:53;;;;;;;11.82;7.80;;;;;;;;;;4930728;28;20439;-75
2022/03/09 08:38:19;;;;;;;12.38;7.70;;;;;;;;;;4931508;29;20964;-75
2022/03/09 08:40:45;;;;;;;10.85;7.13;;;;;;;;;;4919589;28;20413;-74
2022/03/09 08:43:11;;;;;;;9.38;6.68;;;;;;;;;;4933290;29;21714;-75
2022/03/09 08:45:38;;;;;;;16.77;7.90;;;;;;;;;;4935362;29;20425;-75
2022/03/09 08:48:05;;;;;;;13.82;7.50;;;;;;;;;;4917878;28;20413;-76
2022/03/09 08:50:31;;;;;;;10.63;7.32;;;;;;;;;;4904174;28;20512;-75
2022/03/09 08:52:57;;;;;;;12.35;7.55;;;;;;;;;;4933735;29;20762;-74
2022/03/09 08:55:23;;;;;;;11.20;7.15;;;;;;;;;;4935026;28;20445;-76
2022/03/09 08:57:49;;;;;;;11.00;7.32;;;;;;;;;;4919525;29;20417;-75
2022/03/09 09:00:15;;;;;;;9.98;7.20;;;;;;;;;;4934987;29;20476;-76
2022/03/09 09:02:42;;;;;;;11.50;7.78;;;;;;;;;;4919141;29;20473;-75
2022/03/09 09:05:09;;;;;;;9.75;7.13;;;;;;;;;;4914932;28;20468;-75
2022/03/09 09:07:35;;;;;;;10.98;7.22;;;;;;;;;;4933839;29;20425;-75
2022/03/09 09:10:01;;;;;;;11.57;7.40;;;;;;;;;;4950129;28;20405;-75
2022/03/09 09:12:30;;;;;;;10.88;7.05;;;;;;;;;;4902458;29;20406;-75
2022/03/09 09:14:56;;;;;;;11.48;7.43;;;;;;;;;;4933501;29;20406;-76
2022/03/09 09:17:22;;;;;;;14.02;7.50;;;;;;;;;;4934419;29;20509;-76
2022/03/09 09:19:48;;;;;;;10.35;7.68;;;;;;;;;;4917678;29;20433;-74
2022/03/09 09:22:15;;;;;;;9.53;7.00;;;;;;;;;;4933131;29;20495;-75
2022/03/09 09:24:41;;;;;;;11.48;7.60;;;;;;;;;;4917559;29;20430;-74
2022/03/09 09:27:07;;;;;;;13.23;8.02;;;;;;;;;;4934801;28;20433;-74
2022/03/09 09:29:33;;;;;;;11.88;7.75;;;;;;;;;;4932813;29;20435;-74
2022/03/09 09:32:00;;;;;;;12.50;7.60;;;;;;;;;;4913773;29;20451;-76
2022/03/09 09:34:26;;;;;;;12.07;7.47;;;;;;;;;;4933968;29;20937;-74
2022/03/09 09:36:52;;;;;;;11.65;7.43;;;;;;;;;;4932745;29;20422;-74
2022/03/09 09:39:19;;;;;;;13.63;7.90;;;;;;;;;;4934289;28;20761;-74
2022/03/09 09:41:47;;;;;;;12.15;7.90;;;;;;;;;;4933310;28;20494;-74
2022/03/09 09:44:13;;;;;;;11.15;7.65;;;;;;;;;;4916418;29;20466;-75
2022/03/09 09:46:40;;;;;;;11.27;7.97;;;;;;;;;;4916698;29;20422;-74
2022/03/09 09:49:10;;;;;;;11.32;7.30;;;;;;;;;;4932763;29;20425;-74
2022/03/09 09:51:39;;;;;;;11.60;7.70;;;9.10;99.90;;;;;;4917759;29;20838;-73
2022/03/09 09:54:05;;;;;;;12.32;7.40;;;;;;;;;;4950276;28;20425;-73
2022/03/09 09:56:35;;;;;;;14.37;8.13;;;;;;;;;;4933439;28;20453;-73
2022/03/09 09:59:02;;;;;;;10.45;7.55;;;;;;;;;;4932794;28;20500;-73
2022/03/09 10:01:29;;;;;;;11.20;7.57;;;;;;;;;;4930225;29;20889;-73
2022/03/09 10:03:55;;;;;;;10.70;7.10;;;;;;;;;;4933998;29;20475;-73
2022/03/09 10:06:21;;;;;;;13.25;7.93;;;;;;;;;;4931736;29;20414;-72
2022/03/09 10:09:19;;;;;;;10.77;7.82;;;9.80;99.90;;;;;;4916363;29;20430;-73
2022/03/09 10:11:56;;;;;;;12.25;8.07;;;;;;;;;;4880960;29;20498;-72
2022/03/09 10:14:41;;;;;;;13.47;7.90;;;;;;;;;;4918372;29;20413;-73
2022/03/09 10:17:09;;;;;;;13.17;7.87;;;;;;;;;;4931798;29;20441;-73
2022/03/09 10:19:40;;;;;;;11.93;7.63;;;;;;;;;;4933971;29;20457;-73
2022/03/09 10:22:25;;;;;;;10.57;7.75;;;;;;;;;;4917720;28;20430;-73
2022/03/09 10:24:52;;;;;;;12.77;8.15;;;9.70;99.90;;;;;;4920208;29;20418;-73
2022/03/09 10:27:41;;;;;;;11.60;7.83;;;;;;;;;;4916049;29;20414;-73
2022/03/09 10:30:13;;;;;;;13.55;8.10;;;9.50;99.90;;;;;;4915728;29;20915;-73
2022/03/09 10:32:48;;;;;;;14.63;8.05;;;9.50;99.90;;;;;;4915418;29;20890;-74
2022/03/09 10:35:15;;;;;;;10.38;7.80;;;;;;;;;;4929993;29;20442;-73
2022/03/09 10:37:42;;;;;;;13.57;8.40;;;;;;;;;;4916508;29;20752;-73
2022/03/09 10:40:11;;;;;;;12.32;7.82;;;;;;;;;;4949086;28;20413;-73
2022/03/09 10:42:37;;;;;;;10.90;7.90;;;;;;;;;;4931593;28;21695;-74
2022/03/09 10:45:07;;;;;;;11.32;7.65;;;;;;;;;;4914666;28;20437;-73
2022/03/09 10:47:40;;;;;;;18.98;8.80;;;10.40;99.90;;;;;;4948444;28;20472;-73
2022/03/09 10:50:21;;;;;;;12.60;7.72;;;10.50;99.90;;;;;;4948476;28;20424;-73
2022/03/09 10:52:47;;;;;;;12.30;8.33;;;;;;;;;;4933871;29;20426;-73
2022/03/09 10:55:32;;;;;;;16.30;8.50;;;10.30;99.90;;;;;;4934283;29;20453;-73
2022/03/09 10:58:17;;;;;;;14.18;8.07;;;;;;;;;;4917673;28;20508;-74
2022/03/09 11:00:45;;;;;;;10.50;7.78;;;10.70;99.90;;;;;;4915841;29;20417;-73
2022/03/09 11:03:22;;;;;;;12.02;7.90;;;11.00;99.90;;;;;;4931105;29;20455;-73
2022/03/09 11:05:48;;;;;;;10.35;7.90;;;;;;;;;;4913417;28;20426;-73
2022/03/09 11:08:15;;;;;;;12.55;7.72;;;10.40;99.90;;;;;;4931261;29;20429;-73
2022/03/09 11:10:44;;;;;;;11.93;7.93;;;;;;;;;;4931203;29;20476;-73
2022/03/09 11:13:11;;;;;;;16.10;8.27;;;;;;;;;;4931426;29;20503;-73
2022/03/09 11:15:37;;;;;;;17.85;8.23;;;;;;;;;;4931033;29;20426;-74
2022/03/09 11:18:03;;;;;;;11.93;7.90;;;;;;;;;;4914317;28;20425;-73
2022/03/09 11:20:29;;;;;;;13.55;8.10;;;;;;;;;;4931111;29;20838;-73
2022/03/09 11:22:55;;;;;;;14.70;8.50;;;11.50;99.90;;;;;;4932433;29;20991;-74
2022/03/09 11:25:23;;;;;;;11.43;8.40;;;;;;;;;;4928798;29;20434;-75
2022/03/09 11:27:51;;;;;;;11.73;8.18;;;;;;;;;;4931785;29;20533;-75
2022/03/09 11:30:31;;;;;;;10.77;8.15;;;11.40;99.90;;;;;;4930998;29;20814;-75
2022/03/09 11:32:58;;;;;;;12.10;7.95;;;11.20;99.90;;;;;;4915229;28;20505;-75
2022/03/09 11:35:37;;;;;;;13.77;7.78;;;;;;;;;;4901068;29;20434;-75
2022/03/09 11:38:23;;;;;;;10.93;7.70;;;;;;;;;;4914728;29;20438;-75
2022/03/09 11:41:14;;;;;;;10.25;8.00;;;12.00;98.70;;;;;;4931497;28;20422;-76
2022/03/09 11:43:40;;;;;;;11.50;8.10;;;;;;;;;;4930448;29;21162;-75
2022/03/09 11:46:07;;;;;;;13.80;8.20;;;;;;;;;;4930943;29;20516;-75
2022/03/09 11:48:48;;;;;;;12.13;8.10;;;;;;;;;;4929717;29;20414;-75
2022/03/09 11:51:14;;;;;;;11.80;8.32;;;;;;;;;;4915191;29;20421;-76
2022/03/09 11:53:40;;;;;;;11.57;8.17;;;;;;;;;;4911712;29;20434;-75
2022/03/09 11:56:27;;;;;;;12.95;8.30;;;12.50;97.00;;;;;;4929663;29;20436;-74
2022/03/09 11:59:10;;;;;;;11.82;8.23;;;;;;;;;;4931926;29;20437;-73
2022/03/09 12:02:00;;;;;;;14.17;8.60;;;11.90;96.90;;;;;;4909590;29;20419;-73
2022/03/09 12:04:50;;;;;;;10.68;7.93;;;;;;;;;;4946920;29;20499;-73
2022/03/09 12:07:33;;;;;;;11.13;7.90;;;;;;;;;;4931443;29;20468;-74
2022/03/09 12:10:00;;;;;;;12.15;7.85;;;;;;;;;;4925813;29;20472;-74
2022/03/09 12:12:27;;;;;;;14.35;8.52;;;;;;;;;;4916254;29;20817;-73
2022/03/09 12:15:03;;;;;;;12.30;8.60;;;;;;;;;;4931590;29;20417;-74
2022/03/09 12:17:30;;;;;;;11.50;8.20;;;12.90;96.00;;;;;;4916753;29;20813;-73
2022/03/09 12:20:15;;;;;;;11.52;7.85;;;;;;;;;;4931387;28;21158;-73
2022/03/09 12:23:04;;;;;;;12.93;8.50;;;12.90;94.70;;;;;;4932215;28;21004;-74
2022/03/09 12:25:46;;;;;;;11.93;8.45;;;12.50;94.70;;;;;;4922079;28;20437;-73
2022/03/09 12:28:24;;;;;;;12.63;8.40;;;13.30;94.30;;;;;;4931264;29;20413;-73
2022/03/09 12:30:53;;;;;;;12.73;8.80;;;13.10;94.10;;;;;;4946844;28;20421;-74
2022/03/09 12:33:29;;;;;;;14.00;8.60;;;12.90;94.10;;;;;;4912908;29;20512;-74
2022/03/09 12:36:06;;;;;;;11.52;8.90;;;13.20;94.20;;;;;;4927739;29;20445;-73
2022/03/09 12:38:45;;;;;;;12.05;8.88;;;13.50;93.30;;;;;;4929033;29;20453;-76
2022/03/09 12:41:24;;;;;;;12.13;8.45;;;;;;;;;;4916384;29;20429;-75
2022/03/09 12:43:52;;;;;;;12.60;8.50;;;13.00;94.20;;;;;;4931106;29;20462;-75
2022/03/09 12:46:19;;;;;;;13.93;8.10;;;13.10;94.20;;;;;;4930673;29;20420;-75
2022/03/09 12:48:45;;;;;;;10.65;8.57;;;;;;;;;;4914850;29;20425;-75
2022/03/09 12:51:11;;;;;;;12.60;8.35;;;;;;;;;;4915362;29;20421;-75
2022/03/09 12:53:37;;;;;;;11.35;8.00;;;13.40;93.40;;;;;;4929892;29;20425;-76
2022/03/09 12:56:17;;;;;;;12.48;8.90;;;;;;;;;;4945666;28;20430;-75
2022/03/09 12:58:43;;;;;;;11.38;8.30;;;;;;;;;;4930556;29;20444;-75
2022/03/09 13:01:10;;;;;;;11.98;8.35;;;;;;;;;;4929086;29;20417;-75
2022/03/09 13:03:36;;;;;;;13.63;8.18;;;13.60;93.40;;;;;;4946952;28;20536;-75
2022/03/09 13:06:06;;;;;;;12.82;8.55;;;13.40;92.50;;;;;;4929103;28;20877;-75
2022/03/09 13:08:35;;;;;;;11.07;8.77;;;;;;;;;;4914447;28;20413;-75
2022/03/09 13:11:04;;;;;;;13.85;8.40;;;;;;;;;;4930773;29;20504;-75
2022/03/09 13:13:32;;;;;;;13.52;8.90;;;13.20;92.80;;;;;;4928389;29;20421;-75
2022/03/09 13:16:02;;;;;;;12.20;8.65;;;;;;;;;;4947696;29;20442;-75
2022/03/09 13:18:33;;;;;;;11.80;8.27;;;13.50;93.10;;;;;;4895514;28;20573;-74
2022/03/09 13:21:00;;;;;;;13.20;9.10;;;;;;;;;;4939241;28;20438;-75
2022/03/09 13:23:33;;;;;;;13.13;9.00;;;12.40;92.60;;;;;;4932486;29;20868;-75
2022/03/09 13:26:19;;;;;;;12.00;9.15;;;;;;;;;;4932807;28;20883;-75
2022/03/09 13:28:47;;;;;;;12.98;8.63;;;13.40;93.40;;;;;;4931491;29;20905;-76
2022/03/09 13:31:14;;;;;;;11.88;9.02;;;;;;;;;;4947719;28;20953;-74
2022/03/09 13:33:40;;;;;;;13.48;9.07;;;13.30;93.30;;;;;;4930051;29;21592;-76
2022/03/09 13:36:12;;;;;;;10.45;8.30;;;12.80;93.50;;;;;;4932051;29;20448;-75
2022/03/09 13:38:41;;;;;;;14.27;9.23;;;;;;;;;;4926071;28;20421;-77
2022/03/09 13:41:08;;;;;;;12.55;9.27;;;;;;;;;;4919260;29;20933;-77
2022/03/09 13:43:36;;;;;;;14.88;8.77;;;;;;;;;;4932872;29;20434;-77
2022/03/09 13:46:12;;;;;;;12.10;8.50;;;;;;;;;;4916432;29;20409;-77
2022/03/09 13:48:38;;;;;;;13.05;9.30;;;;;;;;;;4933562;29;20449;-77
2022/03/09 13:51:04;;;;;;;12.77;9.00;;;;;;;;;;4950996;28;20413;-77
2022/03/09 13:53:34;;;;;;;14.10;8.90;;;;;;;;;;4917141;29;20434;-77
2022/03/09 13:56:02;;;;;;;13.63;9.27;;;;;;;;;;4950275;28;20418;-77
2022/03/09 13:58:28;;;;;;;14.52;9.38;;;;;;;;;;4931626;28;20414;-77
2022/03/09 14:01:08;;;;;;;14.20;9.55;;;;;;;;;;4932794;29;20810;-77
2022/03/09 14:03:40;;;;;;;13.38;9.10;;;;;;;;;;4917365;29;20446;-78
2022/03/09 14:06:33;;;;;;;12.98;9.38;;;12.70;92.60;;;;;;4914281;29;20515;-78
2022/03/09 14:09:09;;;;;;;13.73;9.35;;;;;;;;;;4930418;28;20453;-77
2022/03/09 14:11:36;;;;;;;12.95;9.18;;;13.20;92.60;;;;;;4932227;29;20449;-76
2022/03/09 14:14:04;;;;;;;14.35;9.55;;;;;;;;;;4949204;28;20485;-77
2022/03/09 14:16:30;;;;;;;13.18;9.30;;;;;;;;;;4925414;28;20482;-76
2022/03/09 14:18:56;;;;;;;14.07;9.48;;;;;;;;;;4916966;29;20414;-77
2022/03/09 14:21:23;;;;;;;13.33;9.53;;;12.80;92.40;;;;;;4902213;29;20424;-77
2022/03/09 14:23:50;;;;;;;14.07;9.32;;;;;;;;;;4931465;28;20490;-77
2022/03/09 14:26:16;;;;;;;12.63;9.20;;;;;;;;;;4934422;29;20417;-77
2022/03/09 14:28:42;;;;;;;15.98;10.32;;;;;;;;;;4932946;28;20416;-77
2022/03/09 14:31:09;;;;;;;13.23;10.07;;;;;;;;;;4918153;29;20445;-76
2022/03/09 14:33:35;;;;;;;13.20;9.20;;;;;;;;;;4912525;29;20434;-77
2022/03/09 14:36:03;;;;;;;12.18;8.80;;;;;;;;;;4930240;29;20465;-77
2022/03/09 14:38:29;;;;;;;12.65;9.32;;;;;;;;;;4917933;29;20421;-77
2022/03/09 14:40:55;;;;;;;13.18;9.05;;;;;;;;;;4912460;29;20749;-75
2022/03/09 14:43:21;;;;;;;14.18;9.77;;;;;;;;;;4915944;29;20450;-75